sensor_id;sensor_type;location;lat;lon;timestamp;temperature;humidity
10042;DHT22;5061;49.068;12.058;2023-06-22T00:00:25;19.40;99.90
10042;DHT22;5061;49.068;12.058;2023-06-22T00:03:46;19.30;99.90
10042;DHT22;5061;49.068;12.058;2023-06-22T00:07:07;19.30;99.90
10042;DHT22;5061;49.068;12.058;2023-06-22T00:10:28;19.30;99.90
10042;DHT22;5061;49.068;12.058;2023-06-22T00:13:49;19.30;99.90
10042;DHT22;5061;49.068;12.058;2023-06-22T00:17:11;19.30;99.90
10042;DHT22;5061;49.068;12.058;2023-06-22T00:20:32;19.30;99.90
10042;DHT22;5061;49.068;12.058;2023-06-22T00:23:53;19.30;99.90
10042;DHT22;5061;49.068;12.058;2023-06-22T00:27:13;19.30;99.90
10042;DHT22;5061;49.068;12.058;2023-06-22T00:30:34;19.30;99.90
10042;DHT22;5061;49.068;12.058;2023-06-22T00:33:55;19.20;99.90
10042;DHT22;5061;49.068;12.058;2023-06-22T00:37:16;19.20;99.90
10042;DHT22;5061;49.068;12.058;2023-06-22T00:40:37;19.20;99.90
10042;DHT22;5061;49.068;12.058;2023-06-22T00:43:57;19.20;99.90
10042;DHT22;5061;49.068;12.058;2023-06-22T00:47:18;19.20;99.90
10042;DHT22;5061;49.068;12.058;2023-06-22T00:50:40;19.20;99.90
10042;DHT22;5061;49.068;12.058;2023-06-22T00:54:00;19.20;99.90
10042;DHT22;5061;49.068;12.058;2023-06-22T00:57:22;19.20;99.90
10042;DHT22;5061;49.068;12.058;2023-06-22T01:00:46;19.10;99.90
10042;DHT22;5061;49.068;12.058;2023-06-22T01:04:06;19.00;99.90
10042;DHT22;5061;49.068;12.058;2023-06-22T01:11:28;18.90;99.90
10042;DHT22;5061;49.068;12.058;2023-06-22T01:18:35;18.80;99.90
10042;DHT22;5061;49.068;12.058;2023-06-22T01:21:58;18.80;99.90
10042;DHT22;5061;49.068;12.058;2023-06-22T01:25:31;18.80;99.90
10042;DHT22;5061;49.068;12.058;2023-06-22T01:28:55;18.80;99.90
10042;DHT22;5061;49.068;12.058;2023-06-22T01:32:18;18.80;99.90
10042;DHT22;5061;49.068;12.058;2023-06-22T01:35:40;18.80;99.90
10042;DHT22;5061;49.068;12.058;2023-06-22T01:39:02;18.70;99.90
10042;DHT22;5061;49.068;12.058;2023-06-22T01:42:27;18.70;99.90
10042;DHT22;5061;49.068;12.058;2023-06-22T01:45:47;18.70;99.90
10042;DHT22;5061;49.068;12.058;2023-06-22T01:49:08;18.70;99.90
10042;DHT22;5061;49.068;12.058;2023-06-22T01:52:29;18.70;99.90
10042;DHT22;5061;49.068;12.058;2023-06-22T01:55:50;18.60;99.90
10042;DHT22;5061;49.068;12.058;2023-06-22T01:59:32;18.60;99.90
10042;DHT22;5061;49.068;12.058;2023-06-22T02:03:03;18.60;99.90
10042;DHT22;5061;49.068;12.058;2023-06-22T02:06:31;18.60;99.90
10042;DHT22;5061;49.068;12.058;2023-06-22T02:09:56;18.50;99.90
10042;DHT22;5061;49.068;12.058;2023-06-22T02:13:18;18.50;99.90
10042;DHT22;5061;49.068;12.058;2023-06-22T02:16:40;18.50;99.90
10042;DHT22;5061;49.068;12.058;2023-06-22T02:20:02;18.50;99.90
10042;DHT22;5061;49.068;12.058;2023-06-22T02:23:29;18.50;99.90
10042;DHT22;5061;49.068;12.058;2023-06-22T02:26:49;18.50;99.90
10042;DHT22;5061;49.068;12.058;2023-06-22T02:30:10;18.40;99.90
10042;DHT22;5061;49.068;12.058;2023-06-22T02:33:31;18.40;99.90
10042;DHT22;5061;49.068;12.058;2023-06-22T02:36:52;18.40;99.90
10042;DHT22;5061;49.068;12.058;2023-06-22T02:40:12;18.30;99.90
10042;DHT22;5061;49.068;12.058;2023-06-22T02:43:33;18.30;99.90
10042;DHT22;5061;49.068;12.058;2023-06-22T02:46:53;18.20;99.90
10042;DHT22;5061;49.068;12.058;2023-06-22T02:50:14;18.20;99.90
10042;DHT22;5061;49.068;12.058;2023-06-22T02:53:35;18.20;99.90
10042;DHT22;5061;49.068;12.058;2023-06-22T02:56:56;18.20;99.90
10042;DHT22;5061;49.068;12.058;2023-06-22T03:00:16;18.20;99.90
10042;DHT22;5061;49.068;12.058;2023-06-22T03:03:38;18.20;99.90
10042;DHT22;5061;49.068;12.058;2023-06-22T03:06:58;18.10;99.90
10042;DHT22;5061;49.068;12.058;2023-06-22T03:10:21;18.10;99.90
10042;DHT22;5061;49.068;12.058;2023-06-22T03:13:41;18.10;99.90
10042;DHT22;5061;49.068;12.058;2023-06-22T03:17:03;18.10;99.90
10042;DHT22;5061;49.068;12.058;2023-06-22T03:20:24;18.10;99.90
10042;DHT22;5061;49.068;12.058;2023-06-22T03:23:47;18.10;99.90
10042;DHT22;5061;49.068;12.058;2023-06-22T03:27:07;18.10;99.90
10042;DHT22;5061;49.068;12.058;2023-06-22T03:30:28;18.00;99.90
10042;DHT22;5061;49.068;12.058;2023-06-22T03:33:49;18.10;99.90
10042;DHT22;5061;49.068;12.058;2023-06-22T03:37:10;18.00;99.90
10042;DHT22;5061;49.068;12.058;2023-06-22T03:40:31;18.00;99.90
10042;DHT22;5061;49.068;12.058;2023-06-22T03:43:51;18.00;99.90
10042;DHT22;5061;49.068;12.058;2023-06-22T03:47:12;18.00;99.90
10042;DHT22;5061;49.068;12.058;2023-06-22T03:50:33;17.90;99.90
10042;DHT22;5061;49.068;12.058;2023-06-22T03:53:53;17.90;99.90
10042;DHT22;5061;49.068;12.058;2023-06-22T03:57:14;17.90;99.90
10042;DHT22;5061;49.068;12.058;2023-06-22T04:00:34;17.90;99.90
10042;DHT22;5061;49.068;12.058;2023-06-22T04:03:55;17.90;99.90
10042;DHT22;5061;49.068;12.058;2023-06-22T04:07:16;17.80;99.90
10042;DHT22;5061;49.068;12.058;2023-06-22T04:10:38;17.90;99.90
10042;DHT22;5061;49.068;12.058;2023-06-22T04:13:58;17.90;99.90
10042;DHT22;5061;49.068;12.058;2023-06-22T04:17:19;17.90;99.90
10042;DHT22;5061;49.068;12.058;2023-06-22T04:20:39;18.00;99.90
10042;DHT22;5061;49.068;12.058;2023-06-22T04:24:00;18.00;99.90
10042;DHT22;5061;49.068;12.058;2023-06-22T04:27:20;18.00;99.90
10042;DHT22;5061;49.068;12.058;2023-06-22T04:30:43;18.00;99.90
10042;DHT22;5061;49.068;12.058;2023-06-22T04:34:07;18.00;99.90
10042;DHT22;5061;49.068;12.058;2023-06-22T04:37:28;18.10;99.90
10042;DHT22;5061;49.068;12.058;2023-06-22T04:40:49;18.10;99.90
10042;DHT22;5061;49.068;12.058;2023-06-22T04:44:10;18.10;99.90
10042;DHT22;5061;49.068;12.058;2023-06-22T04:47:31;18.20;99.90
10042;DHT22;5061;49.068;12.058;2023-06-22T04:50:51;18.30;99.90
10042;DHT22;5061;49.068;12.058;2023-06-22T04:54:12;18.40;99.90
10042;DHT22;5061;49.068;12.058;2023-06-22T04:57:32;18.50;99.90
10042;DHT22;5061;49.068;12.058;2023-06-22T05:00:54;18.50;99.90
10042;DHT22;5061;49.068;12.058;2023-06-22T05:04:17;18.50;99.90
10042;DHT22;5061;49.068;12.058;2023-06-22T05:07:38;18.50;99.90
10042;DHT22;5061;49.068;12.058;2023-06-22T05:11:00;18.50;99.90
10042;DHT22;5061;49.068;12.058;2023-06-22T05:14:20;18.60;99.90
10042;DHT22;5061;49.068;12.058;2023-06-22T05:17:41;18.60;99.90
10042;DHT22;5061;49.068;12.058;2023-06-22T05:21:05;18.70;99.90
10042;DHT22;5061;49.068;12.058;2023-06-22T05:24:25;18.80;99.90
10042;DHT22;5061;49.068;12.058;2023-06-22T05:27:46;18.80;99.90
10042;DHT22;5061;49.068;12.058;2023-06-22T05:31:07;18.90;99.90
10042;DHT22;5061;49.068;12.058;2023-06-22T05:34:27;19.00;99.90
10042;DHT22;5061;49.068;12.058;2023-06-22T05:37:48;19.10;99.90
10042;DHT22;5061;49.068;12.058;2023-06-22T05:41:08;19.20;99.90
10042;DHT22;5061;49.068;12.058;2023-06-22T05:44:29;19.30;99.90
10042;DHT22;5061;49.068;12.058;2023-06-22T05:47:50;19.40;99.90
10042;DHT22;5061;49.068;12.058;2023-06-22T05:51:10;19.60;99.90
10042;DHT22;5061;49.068;12.058;2023-06-22T05:54:31;19.70;99.90
10042;DHT22;5061;49.068;12.058;2023-06-22T05:57:52;19.80;99.90
10042;DHT22;5061;49.068;12.058;2023-06-22T06:01:13;19.90;99.90
10042;DHT22;5061;49.068;12.058;2023-06-22T06:04:35;20.00;99.90
10042;DHT22;5061;49.068;12.058;2023-06-22T06:07:56;20.10;99.90
10042;DHT22;5061;49.068;12.058;2023-06-22T06:11:17;20.20;99.90
10042;DHT22;5061;49.068;12.058;2023-06-22T06:14:37;20.30;99.90
10042;DHT22;5061;49.068;12.058;2023-06-22T06:17:58;20.40;99.90
10042;DHT22;5061;49.068;12.058;2023-06-22T06:21:19;20.50;99.90
10042;DHT22;5061;49.068;12.058;2023-06-22T06:24:39;20.60;99.90
10042;DHT22;5061;49.068;12.058;2023-06-22T06:28:00;20.70;99.90
10042;DHT22;5061;49.068;12.058;2023-06-22T06:31:20;20.70;99.90
10042;DHT22;5061;49.068;12.058;2023-06-22T06:34:41;20.80;99.90
10042;DHT22;5061;49.068;12.058;2023-06-22T06:38:01;20.80;99.90
10042;DHT22;5061;49.068;12.058;2023-06-22T06:41:22;20.90;99.90
10042;DHT22;5061;49.068;12.058;2023-06-22T06:44:43;21.00;99.90
10042;DHT22;5061;49.068;12.058;2023-06-22T06:48:04;21.00;99.90
10042;DHT22;5061;49.068;12.058;2023-06-22T06:51:24;21.20;99.90
10042;DHT22;5061;49.068;12.058;2023-06-22T06:54:45;21.20;99.90
10042;DHT22;5061;49.068;12.058;2023-06-22T06:58:05;21.30;99.90
10042;DHT22;5061;49.068;12.058;2023-06-22T07:01:28;21.40;99.90
10042;DHT22;5061;49.068;12.058;2023-06-22T07:04:54;21.40;99.90
10042;DHT22;5061;49.068;12.058;2023-06-22T07:08:15;21.50;99.90
10042;DHT22;5061;49.068;12.058;2023-06-22T07:11:36;21.50;99.90
10042;DHT22;5061;49.068;12.058;2023-06-22T07:15:04;21.60;99.90
10042;DHT22;5061;49.068;12.058;2023-06-22T07:18:26;21.70;99.90
10042;DHT22;5061;49.068;12.058;2023-06-22T07:21:46;21.90;99.90
10042;DHT22;5061;49.068;12.058;2023-06-22T07:25:07;22.00;99.90
10042;DHT22;5061;49.068;12.058;2023-06-22T07:28:34;22.10;99.90
10042;DHT22;5061;49.068;12.058;2023-06-22T07:31:58;22.30;99.90
10042;DHT22;5061;49.068;12.058;2023-06-22T07:35:21;22.40;99.90
10042;DHT22;5061;49.068;12.058;2023-06-22T07:38:41;22.50;99.90
10042;DHT22;5061;49.068;12.058;2023-06-22T07:42:02;22.70;99.90
10042;DHT22;5061;49.068;12.058;2023-06-22T07:45:22;22.80;99.90
10042;DHT22;5061;49.068;12.058;2023-06-22T07:48:43;22.90;99.90
10042;DHT22;5061;49.068;12.058;2023-06-22T07:52:04;23.00;99.90
10042;DHT22;5061;49.068;12.058;2023-06-22T07:55:25;23.20;99.90
10042;DHT22;5061;49.068;12.058;2023-06-22T07:58:46;23.30;99.90
10042;DHT22;5061;49.068;12.058;2023-06-22T08:02:07;23.40;99.90
10042;DHT22;5061;49.068;12.058;2023-06-22T08:05:29;23.60;99.90
10042;DHT22;5061;49.068;12.058;2023-06-22T08:08:50;23.70;99.90
10042;DHT22;5061;49.068;12.058;2023-06-22T08:12:13;23.90;99.90
10042;DHT22;5061;49.068;12.058;2023-06-22T08:15:34;24.10;99.90
10042;DHT22;5061;49.068;12.058;2023-06-22T08:18:54;24.30;99.90
10042;DHT22;5061;49.068;12.058;2023-06-22T08:22:16;24.40;99.90
10042;DHT22;5061;49.068;12.058;2023-06-22T08:25:37;24.60;99.90
10042;DHT22;5061;49.068;12.058;2023-06-22T08:28:57;24.80;99.90
10042;DHT22;5061;49.068;12.058;2023-06-22T08:32:18;24.90;99.90
10042;DHT22;5061;49.068;12.058;2023-06-22T08:35:38;25.10;99.90
10042;DHT22;5061;49.068;12.058;2023-06-22T08:38:59;25.30;99.90
10042;DHT22;5061;49.068;12.058;2023-06-22T08:42:23;25.50;99.90
10042;DHT22;5061;49.068;12.058;2023-06-22T08:45:44;25.60;99.90
10042;DHT22;5061;49.068;12.058;2023-06-22T08:49:06;25.80;99.90
10042;DHT22;5061;49.068;12.058;2023-06-22T08:52:27;25.90;99.90
10042;DHT22;5061;49.068;12.058;2023-06-22T08:55:47;26.10;99.90
10042;DHT22;5061;49.068;12.058;2023-06-22T08:59:08;26.30;99.90
10042;DHT22;5061;49.068;12.058;2023-06-22T09:02:29;26.40;99.90
10042;DHT22;5061;49.068;12.058;2023-06-22T09:05:51;26.50;99.90
10042;DHT22;5061;49.068;12.058;2023-06-22T09:09:16;26.70;99.90
10042;DHT22;5061;49.068;12.058;2023-06-22T09:12:36;26.80;99.90
10042;DHT22;5061;49.068;12.058;2023-06-22T09:15:58;26.90;99.90
10042;DHT22;5061;49.068;12.058;2023-06-22T09:19:18;27.00;99.90
10042;DHT22;5061;49.068;12.058;2023-06-22T09:22:40;27.10;99.90
10042;DHT22;5061;49.068;12.058;2023-06-22T09:26:01;27.30;99.90
10042;DHT22;5061;49.068;12.058;2023-06-22T09:29:21;27.30;99.90
10042;DHT22;5061;49.068;12.058;2023-06-22T09:32:42;27.50;99.90
10042;DHT22;5061;49.068;12.058;2023-06-22T09:36:05;27.70;99.90
10042;DHT22;5061;49.068;12.058;2023-06-22T09:39:27;27.90;99.90
10042;DHT22;5061;49.068;12.058;2023-06-22T09:42:48;28.00;99.90
10042;DHT22;5061;49.068;12.058;2023-06-22T09:46:08;28.20;99.90
10042;DHT22;5061;49.068;12.058;2023-06-22T09:49:29;28.40;99.90
10042;DHT22;5061;49.068;12.058;2023-06-22T09:52:50;28.50;99.90
10042;DHT22;5061;49.068;12.058;2023-06-22T09:56:15;28.70;99.90
10042;DHT22;5061;49.068;12.058;2023-06-22T09:59:36;28.80;99.90
10042;DHT22;5061;49.068;12.058;2023-06-22T10:02:57;28.90;99.90
10042;DHT22;5061;49.068;12.058;2023-06-22T10:06:17;28.90;99.90
10042;DHT22;5061;49.068;12.058;2023-06-22T10:09:38;29.10;99.90
10042;DHT22;5061;49.068;12.058;2023-06-22T10:13:08;29.20;99.90
10042;DHT22;5061;49.068;12.058;2023-06-22T10:16:32;29.30;99.90
10042;DHT22;5061;49.068;12.058;2023-06-22T10:19:53;29.50;99.90
10042;DHT22;5061;49.068;12.058;2023-06-22T10:23:14;29.60;99.90
10042;DHT22;5061;49.068;12.058;2023-06-22T10:26:35;29.70;99.90
10042;DHT22;5061;49.068;12.058;2023-06-22T10:29:56;29.80;99.90
10042;DHT22;5061;49.068;12.058;2023-06-22T10:33:17;30.00;99.90
10042;DHT22;5061;49.068;12.058;2023-06-22T10:36:38;30.10;99.90
10042;DHT22;5061;49.068;12.058;2023-06-22T10:39:59;30.10;99.90
10042;DHT22;5061;49.068;12.058;2023-06-22T10:43:20;30.00;99.90
10042;DHT22;5061;49.068;12.058;2023-06-22T10:46:40;30.10;99.90
10042;DHT22;5061;49.068;12.058;2023-06-22T10:50:01;30.10;99.90
10042;DHT22;5061;49.068;12.058;2023-06-22T10:53:22;30.10;99.90
10042;DHT22;5061;49.068;12.058;2023-06-22T10:56:42;30.20;99.90
10042;DHT22;5061;49.068;12.058;2023-06-22T11:00:03;30.20;99.90
10042;DHT22;5061;49.068;12.058;2023-06-22T11:03:29;30.30;99.90
10042;DHT22;5061;49.068;12.058;2023-06-22T11:06:49;30.50;99.90
10042;DHT22;5061;49.068;12.058;2023-06-22T11:10:11;30.60;99.90
10042;DHT22;5061;49.068;12.058;2023-06-22T11:13:32;30.80;99.90
10042;DHT22;5061;49.068;12.058;2023-06-22T11:16:52;31.00;99.90
10042;DHT22;5061;49.068;12.058;2023-06-22T11:20:13;31.10;99.90
10042;DHT22;5061;49.068;12.058;2023-06-22T11:23:33;31.10;99.90
10042;DHT22;5061;49.068;12.058;2023-06-22T11:26:54;31.20;99.90
10042;DHT22;5061;49.068;12.058;2023-06-22T11:30:15;31.30;99.90
10042;DHT22;5061;49.068;12.058;2023-06-22T11:33:35;31.40;99.90
10042;DHT22;5061;49.068;12.058;2023-06-22T11:36:56;31.50;99.90
10042;DHT22;5061;49.068;12.058;2023-06-22T11:40:17;31.70;99.90
10042;DHT22;5061;49.068;12.058;2023-06-22T11:43:38;31.70;97.50
10042;DHT22;5061;49.068;12.058;2023-06-22T11:46:58;31.60;98.50
10042;DHT22;5061;49.068;12.058;2023-06-22T11:50:21;31.60;99.90
10042;DHT22;5061;49.068;12.058;2023-06-22T11:53:41;31.80;95.60
10042;DHT22;5061;49.068;12.058;2023-06-22T11:57:02;31.80;97.70
10042;DHT22;5061;49.068;12.058;2023-06-22T12:00:23;32.00;95.70
10042;DHT22;5061;49.068;12.058;2023-06-22T12:03:44;32.00;97.00
10042;DHT22;5061;49.068;12.058;2023-06-22T12:07:05;32.10;93.80
10042;DHT22;5061;49.068;12.058;2023-06-22T12:10:26;32.20;92.80
10042;DHT22;5061;49.068;12.058;2023-06-22T12:13:49;32.30;93.70
10042;DHT22;5061;49.068;12.058;2023-06-22T12:17:09;32.40;94.20
10042;DHT22;5061;49.068;12.058;2023-06-22T12:20:30;32.50;92.70
10042;DHT22;5061;49.068;12.058;2023-06-22T12:23:50;32.60;91.90
10042;DHT22;5061;49.068;12.058;2023-06-22T12:27:11;32.60;93.20
10042;DHT22;5061;49.068;12.058;2023-06-22T12:30:33;32.70;93.60
10042;DHT22;5061;49.068;12.058;2023-06-22T12:33:54;32.80;93.80
10042;DHT22;5061;49.068;12.058;2023-06-22T12:37:14;32.90;96.80
10042;DHT22;5061;49.068;12.058;2023-06-22T12:40:35;33.10;99.90
10042;DHT22;5061;49.068;12.058;2023-06-22T12:43:55;33.30;93.60
10042;DHT22;5061;49.068;12.058;2023-06-22T12:47:16;33.40;92.70
10042;DHT22;5061;49.068;12.058;2023-06-22T12:50:36;33.50;95.70
10042;DHT22;5061;49.068;12.058;2023-06-22T12:53:57;33.50;97.20
10042;DHT22;5061;49.068;12.058;2023-06-22T12:57:18;33.60;93.70
10042;DHT22;5061;49.068;12.058;2023-06-22T13:00:40;33.70;95.00
10042;DHT22;5061;49.068;12.058;2023-06-22T13:04:00;33.80;99.90
10042;DHT22;5061;49.068;12.058;2023-06-22T13:07:21;33.90;99.10
10042;DHT22;5061;49.068;12.058;2023-06-22T13:10:41;34.00;99.90
10042;DHT22;5061;49.068;12.058;2023-06-22T13:14:02;34.10;93.70
10042;DHT22;5061;49.068;12.058;2023-06-22T13:17:23;34.20;98.20
10042;DHT22;5061;49.068;12.058;2023-06-22T13:20:43;34.30;99.90
10042;DHT22;5061;49.068;12.058;2023-06-22T13:24:06;34.40;92.90
10042;DHT22;5061;49.068;12.058;2023-06-22T13:27:26;34.50;93.60
10042;DHT22;5061;49.068;12.058;2023-06-22T13:30:47;34.60;93.70
10042;DHT22;5061;49.068;12.058;2023-06-22T13:34:08;34.70;99.90
10042;DHT22;5061;49.068;12.058;2023-06-22T13:37:28;34.80;93.40
10042;DHT22;5061;49.068;12.058;2023-06-22T13:40:49;34.80;99.90
10042;DHT22;5061;49.068;12.058;2023-06-22T13:44:10;35.00;93.30
10042;DHT22;5061;49.068;12.058;2023-06-22T13:47:30;35.00;90.80
10042;DHT22;5061;49.068;12.058;2023-06-22T13:50:52;35.00;92.50
10042;DHT22;5061;49.068;12.058;2023-06-22T13:54:12;35.10;99.90
10042;DHT22;5061;49.068;12.058;2023-06-22T13:57:33;35.10;97.90
10042;DHT22;5061;49.068;12.058;2023-06-22T14:00:58;35.30;99.90
10042;DHT22;5061;49.068;12.058;2023-06-22T14:04:18;35.30;90.70
10042;DHT22;5061;49.068;12.058;2023-06-22T14:07:39;35.40;93.00
10042;DHT22;5061;49.068;12.058;2023-06-22T14:10:59;35.30;93.80
10042;DHT22;5061;49.068;12.058;2023-06-22T14:14:20;35.20;94.10
10042;DHT22;5061;49.068;12.058;2023-06-22T14:17:41;35.00;99.90
10042;DHT22;5061;49.068;12.058;2023-06-22T14:21:02;34.90;99.90
10042;DHT22;5061;49.068;12.058;2023-06-22T14:24:23;34.60;99.90
10042;DHT22;5061;49.068;12.058;2023-06-22T14:27:43;34.40;99.90
10042;DHT22;5061;49.068;12.058;2023-06-22T14:31:04;34.20;99.70
10042;DHT22;5061;49.068;12.058;2023-06-22T14:34:25;34.20;99.90
10042;DHT22;5061;49.068;12.058;2023-06-22T14:37:45;34.30;98.50
10042;DHT22;5061;49.068;12.058;2023-06-22T14:41:06;34.50;99.90
10042;DHT22;5061;49.068;12.058;2023-06-22T14:44:27;34.50;99.90
10042;DHT22;5061;49.068;12.058;2023-06-22T14:47:49;34.60;98.30
10042;DHT22;5061;49.068;12.058;2023-06-22T14:51:11;34.80;99.90
10042;DHT22;5061;49.068;12.058;2023-06-22T14:54:32;34.90;99.90
10042;DHT22;5061;49.068;12.058;2023-06-22T14:57:52;35.00;91.60
10042;DHT22;5061;49.068;12.058;2023-06-22T15:01:13;34.90;94.50
10042;DHT22;5061;49.068;12.058;2023-06-22T15:04:34;34.80;99.90
10042;DHT22;5061;49.068;12.058;2023-06-22T15:07:55;34.70;94.50
10042;DHT22;5061;49.068;12.058;2023-06-22T15:11:16;34.50;93.70
10042;DHT22;5061;49.068;12.058;2023-06-22T15:14:40;34.40;94.20
10042;DHT22;5061;49.068;12.058;2023-06-22T15:18:01;34.30;99.90
10042;DHT22;5061;49.068;12.058;2023-06-22T15:21:22;34.50;94.40
10042;DHT22;5061;49.068;12.058;2023-06-22T15:24:42;34.50;93.70
10042;DHT22;5061;49.068;12.058;2023-06-22T15:28:04;34.40;95.10
10042;DHT22;5061;49.068;12.058;2023-06-22T15:31:25;34.50;90.50
10042;DHT22;5061;49.068;12.058;2023-06-22T15:34:46;34.50;91.00
10042;DHT22;5061;49.068;12.058;2023-06-22T15:38:07;34.50;85.50
10042;DHT22;5061;49.068;12.058;2023-06-22T15:41:27;34.50;88.40
10042;DHT22;5061;49.068;12.058;2023-06-22T15:44:49;34.60;92.40
10042;DHT22;5061;49.068;12.058;2023-06-22T15:48:09;34.70;96.70
10042;DHT22;5061;49.068;12.058;2023-06-22T15:51:30;34.70;95.50
10042;DHT22;5061;49.068;12.058;2023-06-22T15:54:50;34.70;97.80
10042;DHT22;5061;49.068;12.058;2023-06-22T15:58:14;34.70;99.20
10042;DHT22;5061;49.068;12.058;2023-06-22T16:01:37;34.80;99.90
10042;DHT22;5061;49.068;12.058;2023-06-22T16:04:57;34.80;93.90
10042;DHT22;5061;49.068;12.058;2023-06-22T16:08:19;34.80;93.00
10042;DHT22;5061;49.068;12.058;2023-06-22T16:11:40;34.80;99.30
10042;DHT22;5061;49.068;12.058;2023-06-22T16:15:01;34.80;96.80
10042;DHT22;5061;49.068;12.058;2023-06-22T16:18:21;34.80;97.10
10042;DHT22;5061;49.068;12.058;2023-06-22T16:21:42;34.70;95.00
10042;DHT22;5061;49.068;12.058;2023-06-22T16:25:03;34.70;97.10
10042;DHT22;5061;49.068;12.058;2023-06-22T16:28:24;34.50;98.70
10042;DHT22;5061;49.068;12.058;2023-06-22T16:31:45;34.50;96.30
10042;DHT22;5061;49.068;12.058;2023-06-22T16:35:07;34.40;95.20
10042;DHT22;5061;49.068;12.058;2023-06-22T16:38:28;34.30;99.90
10042;DHT22;5061;49.068;12.058;2023-06-22T16:41:51;34.20;97.30
10042;DHT22;5061;49.068;12.058;2023-06-22T16:45:15;34.10;96.10
10042;DHT22;5061;49.068;12.058;2023-06-22T16:48:37;33.90;99.90
10042;DHT22;5061;49.068;12.058;2023-06-22T16:51:57;33.80;99.90
10042;DHT22;5061;49.068;12.058;2023-06-22T16:55:20;33.70;99.90
10042;DHT22;5061;49.068;12.058;2023-06-22T16:58:41;33.60;99.90
10042;DHT22;5061;49.068;12.058;2023-06-22T17:02:02;33.50;99.90
10042;DHT22;5061;49.068;12.058;2023-06-22T17:05:23;33.30;99.90
10042;DHT22;5061;49.068;12.058;2023-06-22T17:08:44;33.30;99.90
10042;DHT22;5061;49.068;12.058;2023-06-22T17:12:05;33.20;99.90
10042;DHT22;5061;49.068;12.058;2023-06-22T17:15:28;33.10;99.90
10042;DHT22;5061;49.068;12.058;2023-06-22T17:18:52;33.10;99.90
10042;DHT22;5061;49.068;12.058;2023-06-22T17:22:13;33.00;99.90
10042;DHT22;5061;49.068;12.058;2023-06-22T17:25:34;32.90;99.90
10042;DHT22;5061;49.068;12.058;2023-06-22T17:28:54;32.80;99.90
10042;DHT22;5061;49.068;12.058;2023-06-22T17:32:21;32.70;99.90
10042;DHT22;5061;49.068;12.058;2023-06-22T17:35:46;32.60;99.90
10042;DHT22;5061;49.068;12.058;2023-06-22T17:39:13;32.50;99.90
10042;DHT22;5061;49.068;12.058;2023-06-22T17:42:35;32.40;99.90
10042;DHT22;5061;49.068;12.058;2023-06-22T17:45:59;32.30;99.90
10042;DHT22;5061;49.068;12.058;2023-06-22T17:49:20;32.20;99.90
10042;DHT22;5061;49.068;12.058;2023-06-22T17:52:41;32.20;99.90
10042;DHT22;5061;49.068;12.058;2023-06-22T17:56:01;32.00;99.90
10042;DHT22;5061;49.068;12.058;2023-06-22T17:59:23;31.80;99.90
10042;DHT22;5061;49.068;12.058;2023-06-22T18:02:43;31.70;99.90
10042;DHT22;5061;49.068;12.058;2023-06-22T18:06:06;31.60;99.90
10042;DHT22;5061;49.068;12.058;2023-06-22T18:09:27;31.40;99.90
10042;DHT22;5061;49.068;12.058;2023-06-22T18:12:49;31.30;99.90
10042;DHT22;5061;49.068;12.058;2023-06-22T18:16:10;31.10;99.90
10042;DHT22;5061;49.068;12.058;2023-06-22T18:19:31;30.90;99.90
10042;DHT22;5061;49.068;12.058;2023-06-22T18:22:53;30.70;99.90
10042;DHT22;5061;49.068;12.058;2023-06-22T18:26:20;30.50;99.90
10042;DHT22;5061;49.068;12.058;2023-06-22T18:29:42;30.30;99.90
10042;DHT22;5061;49.068;12.058;2023-06-22T18:33:03;30.10;99.90
10042;DHT22;5061;49.068;12.058;2023-06-22T18:36:50;29.90;99.90
10042;DHT22;5061;49.068;12.058;2023-06-22T18:40:13;29.80;99.90
10042;DHT22;5061;49.068;12.058;2023-06-22T18:43:38;29.70;99.90
10042;DHT22;5061;49.068;12.058;2023-06-22T18:47:01;29.60;99.90
10042;DHT22;5061;49.068;12.058;2023-06-22T18:50:42;29.50;99.90
10042;DHT22;5061;49.068;12.058;2023-06-22T18:54:04;29.40;99.90
10042;DHT22;5061;49.068;12.058;2023-06-22T18:57:27;29.20;99.90
10042;DHT22;5061;49.068;12.058;2023-06-22T19:00:51;29.00;99.90
10042;DHT22;5061;49.068;12.058;2023-06-22T19:04:15;28.90;99.90
10042;DHT22;5061;49.068;12.058;2023-06-22T19:11:13;28.60;99.90
10042;DHT22;5061;49.068;12.058;2023-06-22T19:14:33;28.40;99.90
10042;DHT22;5061;49.068;12.058;2023-06-22T19:18:21;28.20;99.90
10042;DHT22;5061;49.068;12.058;2023-06-22T19:21:40;28.10;99.90
10042;DHT22;5061;49.068;12.058;2023-06-22T19:25:00;28.00;99.90
10042;DHT22;5061;49.068;12.058;2023-06-22T19:28:21;27.80;99.90
10042;DHT22;5061;49.068;12.058;2023-06-22T19:31:43;27.70;99.90
10042;DHT22;5061;49.068;12.058;2023-06-22T19:35:05;27.60;99.90
10042;DHT22;5061;49.068;12.058;2023-06-22T19:38:26;27.40;99.90
10042;DHT22;5061;49.068;12.058;2023-06-22T19:41:50;27.30;99.90
10042;DHT22;5061;49.068;12.058;2023-06-22T19:45:15;27.10;99.90
10042;DHT22;5061;49.068;12.058;2023-06-22T19:48:39;26.90;99.90
10042;DHT22;5061;49.068;12.058;2023-06-22T19:52:10;26.80;99.90
10042;DHT22;5061;49.068;12.058;2023-06-22T19:55:30;26.70;99.90
10042;DHT22;5061;49.068;12.058;2023-06-22T19:58:51;26.60;99.90
10042;DHT22;5061;49.068;12.058;2023-06-22T20:02:12;26.50;99.90
10042;DHT22;5061;49.068;12.058;2023-06-22T20:05:33;26.40;99.90
10042;DHT22;5061;49.068;12.058;2023-06-22T20:09:02;26.30;99.90
10042;DHT22;5061;49.068;12.058;2023-06-22T20:12:26;26.20;99.90
10042;DHT22;5061;49.068;12.058;2023-06-22T20:15:49;26.00;99.90
10042;DHT22;5061;49.068;12.058;2023-06-22T20:19:13;25.90;99.90
10042;DHT22;5061;49.068;12.058;2023-06-22T20:22:42;25.80;99.90
10042;DHT22;5061;49.068;12.058;2023-06-22T20:26:07;25.70;99.90
10042;DHT22;5061;49.068;12.058;2023-06-22T20:29:29;25.60;99.90
10042;DHT22;5061;49.068;12.058;2023-06-22T20:32:55;25.60;99.90
10042;DHT22;5061;49.068;12.058;2023-06-22T20:36:15;25.50;99.90
10042;DHT22;5061;49.068;12.058;2023-06-22T20:39:38;25.50;99.90
10042;DHT22;5061;49.068;12.058;2023-06-22T20:43:00;25.40;99.90
10042;DHT22;5061;49.068;12.058;2023-06-22T20:46:24;25.30;99.90
10042;DHT22;5061;49.068;12.058;2023-06-22T20:49:44;25.20;99.90
10042;DHT22;5061;49.068;12.058;2023-06-22T20:53:06;25.00;99.90
10042;DHT22;5061;49.068;12.058;2023-06-22T20:56:27;24.90;99.90
10042;DHT22;5061;49.068;12.058;2023-06-22T20:59:48;24.60;99.90
10042;DHT22;5061;49.068;12.058;2023-06-22T21:03:08;24.30;99.90
10042;DHT22;5061;49.068;12.058;2023-06-22T21:06:31;24.00;99.90
10042;DHT22;5061;49.068;12.058;2023-06-22T21:09:51;23.80;99.90
10042;DHT22;5061;49.068;12.058;2023-06-22T21:13:12;23.70;99.90
10042;DHT22;5061;49.068;12.058;2023-06-22T21:16:33;23.50;99.90
10042;DHT22;5061;49.068;12.058;2023-06-22T21:19:53;23.40;99.90
10042;DHT22;5061;49.068;12.058;2023-06-22T21:23:14;23.30;99.90